Time;durP1;ratioP1;P1;durP2;ratioP2;P2;SDS_P1;SDS_P2;PMS_P1;PMS_P2;Temp;Humidity;BMP_temperature;BMP_pressure;BME280_temperature;BME280_humidity;BME280_pressure;Samples;Min_cycle;Max_cycle;Signal;HPM_P1;HPM_P2
2022/09/07 00:00:50;;;;;;;13.25;11.57;;;;;;;20.09;100.00;100006.94;5038273;28;20049;-82
2022/09/07 00:03:16;;;;;;;12.13;11.02;;;;;;;20.12;100.00;100000.31;5029880;28;20048;-82
2022/09/07 00:05:42;;;;;;;12.60;11.35;;;;;;;20.04;100.00;99991.56;5047430;28;20402;-82
2022/09/07 00:08:09;;;;;;;11.20;10.20;;;;;;;20.10;100.00;99985.97;5047468;28;20041;-82
2022/09/07 00:10:34;;;;;;;12.40;11.30;;;;;;;20.06;100.00;99994.63;5037209;28;20087;-82
2022/09/07 00:13:00;;;;;;;11.88;10.73;;;;;;;20.03;100.00;99995.63;5042730;28;20045;-83
2022/09/07 00:15:26;;;;;;;12.32;11.05;;;;;;;20.03;100.00;99996.41;5044038;28;20068;-82
2022/09/07 00:17:52;;;;;;;11.52;10.52;;;;;;;19.99;100.00;99989.47;5042584;28;20049;-83
2022/09/07 00:20:17;;;;;;;13.73;11.98;;;;;;;19.95;100.00;99995.34;5041967;28;20387;-82
2022/09/07 00:22:44;;;;;;;12.10;11.00;;;;;;;19.93;100.00;99991.50;5023851;28;20111;-82
2022/09/07 00:25:10;;;;;;;13.00;11.70;;;;;;;19.87;100.00;99999.13;5046275;28;20133;-82
2022/09/07 00:27:36;;;;;;;13.93;12.00;;;;;;;19.74;100.00;99985.47;5039849;28;20407;-82
2022/09/07 00:30:03;;;;;;;12.55;11.35;;;;;;;19.67;100.00;99982.34;5033111;28;20045;-82
2022/09/07 00:32:29;;;;;;;12.90;10.40;;;;;;;19.67;100.00;99974.69;5051198;28;20025;-82
2022/09/07 00:34:54;;;;;;;12.45;11.20;;;;;;;19.68;100.00;99981.09;5046501;28;20049;-82
2022/09/07 00:37:20;;;;;;;11.77;10.68;;;;;;;19.69;100.00;99982.63;5040593;28;20130;-81
2022/09/07 00:39:45;;;;;;;12.35;10.98;;;;;;;19.64;100.00;99974.91;5032801;28;20041;-82
2022/09/07 00:42:11;;;;;;;12.02;10.80;;;;;;;19.59;100.00;99972.84;5050276;28;20204;-82
2022/09/07 00:44:42;;;;;;;11.23;10.07;;;;;;;19.58;100.00;99966.44;5034277;28;20044;-80
2022/09/07 00:47:14;;;;;;;10.75;9.75;;;;;;;19.54;100.00;99966.66;5050243;28;20041;-82
2022/09/07 00:49:41;;;;;;;11.35;10.30;;;;;;;19.51;100.00;99959.22;5050558;28;20084;-82
2022/09/07 00:52:08;;;;;;;12.27;11.02;;;;;;;19.44;100.00;99951.25;5051655;28;20033;-82
2022/09/07 00:54:39;;;;;;;12.13;11.00;;;;;;;19.38;100.00;99953.22;5035196;28;20037;-82
2022/09/07 00:57:05;;;;;;;11.77;10.68;;;;;;;19.33;100.00;99951.13;5031436;28;20037;-83
2022/09/07 00:59:34;;;;;;;12.20;10.93;;;;;;;19.28;100.00;99946.25;5050430;28;20501;-82
2022/09/07 01:02:00;;;;;;;12.43;11.23;;;;;;;19.27;100.00;99939.06;5026423;28;20054;-82
2022/09/07 01:04:26;;;;;;;12.20;10.88;;;;;;;19.20;100.00;99947.97;5033553;28;20068;-82
2022/09/07 01:06:54;;;;;;;11.93;10.60;;;;;;;19.17;100.00;99937.69;5048406;28;20506;-83
2022/09/07 01:09:22;;;;;;;13.50;12.20;;;;;;;19.15;100.00;99933.84;5049455;28;20041;-82
2022/09/07 01:11:50;;;;;;;12.63;11.40;;;;;;;19.09;100.00;99956.28;5038228;28;20064;-82
2022/09/07 01:14:22;;;;;;;13.93;12.63;;;;;;;19.06;100.00;99949.63;5051120;28;20517;-82
2022/09/07 01:17:11;;;;;;;13.18;11.95;;;;;;;18.90;100.00;99953.06;5029207;28;20053;-82
2022/09/07 01:20:25;;;;;;;13.10;11.88;;;;;;;18.89;100.00;99965.56;5026570;28;20056;-82
2022/09/07 01:22:53;;;;;;;14.00;12.60;;;;;;;18.81;100.00;99961.66;4957505;28;20055;-82
2022/09/07 01:25:41;;;;;;;12.50;11.40;;;;;;;18.72;100.00;99963.84;5031807;28;20095;-82
2022/09/07 01:28:46;;;;;;;13.07;11.88;;;;;;;18.74;100.00;99955.69;5051204;28;20207;-82
2022/09/07 01:31:37;;;;;;;12.55;11.20;;;;;;;18.72;100.00;99952.63;4957134;28;20057;-82
2022/09/07 01:34:14;;;;;;;12.65;11.45;;;;;;;18.63;100.00;99934.66;5035223;28;20119;-82
2022/09/07 01:36:51;;;;;;;12.93;11.65;;;;;;;18.66;100.00;99937.72;5029251;28;20045;-82
2022/09/07 01:39:21;;;;;;;13.38;12.10;;;;;;;18.56;100.00;99935.06;5033229;28;20064;-82
2022/09/07 01:41:52;;;;;;;15.02;13.10;;;;;;;18.50;100.00;99923.00;5046562;28;20072;-82
2022/09/07 01:44:38;;;;;;;12.93;11.75;;;;;;;18.56;100.00;99932.25;5034417;28;20064;-82
2022/09/07 01:47:14;;;;;;;13.02;11.85;;;;;;;18.53;100.00;99941.69;5048572;28;20525;-82
2022/09/07 01:49:49;;;;;;;13.27;11.90;;;;;;;18.52;100.00;99940.13;5049843;28;20056;-82
2022/09/07 01:52:25;;;;;;;14.38;12.98;;;;;;;18.44;100.00;99941.06;5046163;28;20055;-82
2022/09/07 01:54:56;;;;;;;14.45;13.10;;;;;;;18.29;100.00;99926.31;5049492;28;20045;-82
2022/09/07 01:57:27;;;;;;;13.88;12.60;;;;;;;18.22;100.00;99929.53;5034684;28;20050;-82
2022/09/07 02:00:04;;;;;;;14.20;12.70;;;;;;;18.16;100.00;99923.84;5025847;28;20629;-82
2022/09/07 02:02:41;;;;;;;15.48;14.07;;;;;;;17.90;100.00;99923.03;5043923;28;20072;-81
2022/09/07 02:05:11;;;;;;;14.35;12.90;;;;;;;17.96;100.00;99921.03;5013132;28;20122;-82
2022/09/07 02:07:45;;;;;;;15.80;14.20;;;;;;;17.91;100.00;99913.34;5045014;28;20124;-82
2022/09/07 02:10:16;;;;;;;16.10;14.52;;;;;;;17.84;100.00;99913.75;5019927;28;20073;-82
2022/09/07 02:12:52;;;;;;;13.25;12.00;;;;;;;17.89;100.00;99915.84;5036874;28;20045;-82
2022/09/07 02:15:30;;;;;;;14.50;13.20;;;;;;;17.91;100.00;99921.75;5032739;28;20128;-82
2022/09/07 02:18:03;;;;;;;14.85;13.45;;;;;;;17.79;100.00;99906.81;5018198;28;20490;-81
2022/09/07 02:20:32;;;;;;;14.52;13.23;;;;;;;17.76;100.00;99895.78;5029104;28;20053;-82
2022/09/07 02:23:00;;;;;;;15.30;13.98;;;;;;;17.74;100.00;99895.50;5024680;28;20080;-81
2022/09/07 02:25:30;;;;;;;15.57;14.02;;;;;;;17.68;100.00;99904.63;5014758;28;20049;-82
2022/09/07 02:28:07;;;;;;;13.43;12.32;;;;;;;17.77;100.00;99898.09;5044464;28;20048;-82
2022/09/07 02:30:33;;;;;;;14.45;12.95;;;;;;;17.79;100.00;99889.22;5043531;28;20038;-82
2022/09/07 02:32:59;;;;;;;14.63;13.13;;;;;;;17.84;100.00;99896.91;5044239;28;20130;-83
2022/09/07 02:35:24;;;;;;;16.15;14.55;;;;;;;17.81;100.00;99903.50;5030040;28;20065;-82
2022/09/07 02:37:50;;;;;;;14.70;13.27;;;;;;;17.77;100.00;99897.31;5022851;28;20071;-82
2022/09/07 02:40:16;;;;;;;17.13;14.88;;;;;;;17.75;100.00;99894.25;5029424;28;20453;-82
2022/09/07 02:42:42;;;;;;;16.73;15.07;;;;;;;17.67;100.00;99894.66;5049662;28;20640;-82
2022/09/07 02:45:09;;;;;;;16.48;14.10;;;;;;;17.73;100.00;99893.97;5041815;28;20064;-82
2022/09/07 02:47:53;;;;;;;16.02;14.32;;;;;;;17.77;100.00;99891.72;5018274;28;20049;-82
2022/09/07 02:50:26;;;;;;;15.88;14.43;;;;;;;17.77;100.00;99898.09;5031666;28;20154;-82
2022/09/07 02:53:10;;;;;;;17.52;15.07;;;;;;;17.70;100.00;99901.34;5039247;28;20388;-82
2022/09/07 02:55:44;;;;;;;16.98;15.43;;;;;;;17.54;100.00;99896.22;5049418;28;20088;-82
2022/09/07 02:58:20;;;;;;;16.83;15.30;;;;;;;17.42;100.00;99900.91;5038337;28;20041;-82
2022/09/07 03:01:42;;;;;;;16.63;15.20;;;;;;;17.36;100.00;99900.03;5049255;28;20049;-82
2022/09/07 03:04:12;;;;;;;16.23;14.60;;;;;;;17.41;100.00;99907.75;4956930;28;20113;-82
2022/09/07 03:06:42;;;;;;;15.85;14.35;;;;;;;17.37;100.00;99910.00;4964764;28;20063;-82
2022/09/07 03:09:20;;;;;;;16.00;14.38;;;;;;;17.29;100.00;99897.63;4998436;28;20107;-82
2022/09/07 03:11:46;;;;;;;15.50;13.88;;;;;;;17.40;100.00;99909.00;5040873;28;20103;-82
2022/09/07 03:14:16;;;;;;;16.20;14.75;;;;;;;17.31;100.00;99906.31;5045376;28;20029;-82
2022/09/07 03:16:42;;;;;;;14.70;13.18;;;;;;;17.36;100.00;99913.28;5043573;28;20128;-82
2022/09/07 03:19:08;;;;;;;15.35;13.95;;;;;;;17.31;100.00;99906.31;5043887;28;20136;-82
2022/09/07 03:21:34;;;;;;;14.18;12.88;;;;;;;17.31;100.00;99902.78;5047667;28;20048;-82
2022/09/07 03:24:00;;;;;;;14.48;13.07;;;;;;;17.23;100.00;99905.94;5046412;28;20048;-82
2022/09/07 03:26:26;;;;;;;14.45;13.15;;;;;;;17.30;100.00;99909.63;5032634;28;20068;-81
2022/09/07 03:28:51;;;;;;;14.20;12.90;;;;;;;17.30;100.00;99904.03;5026862;28;20075;-81
2022/09/07 03:31:17;;;;;;;15.65;14.15;;;;;;;17.22;100.00;99903.66;5032551;28;20478;-81
2022/09/07 03:33:42;;;;;;;13.35;12.15;;;;;;;17.26;100.00;99904.22;5043925;28;20087;-82
2022/09/07 03:36:08;;;;;;;14.60;13.30;;;;;;;17.21;100.00;99902.09;5045356;28;20041;-82
2022/09/07 03:38:33;;;;;;;14.43;13.02;;;;;;;17.26;100.00;99907.03;5044589;28;20044;-82
2022/09/07 03:41:04;;;;;;;14.23;12.85;;;;;;;17.17;100.00;99893.91;5049186;28;20040;-81
2022/09/07 03:43:30;;;;;;;13.65;12.43;;;;;;;17.21;100.00;99896.50;5046546;28;20049;-82
2022/09/07 03:46:04;;;;;;;14.50;13.20;;;;;;;17.08;100.00;99899.59;5047107;28;20079;-82
2022/09/07 03:48:33;;;;;;;14.25;12.85;;;;;;;17.05;100.00;99900.56;5013769;28;20037;-82
2022/09/07 03:51:07;;;;;;;13.60;12.40;;;;;;;16.96;100.00;99908.31;5007322;28;20466;-82
2022/09/07 03:53:35;;;;;;;13.05;11.85;;;;;;;16.98;100.00;99911.41;5031360;28;20068;-82
2022/09/07 03:56:16;;;;;;;13.43;12.20;;;;;;;16.98;100.00;99912.19;5021432;28;20128;-82
2022/09/07 03:58:43;;;;;;;13.15;12.05;;;;;;;16.85;100.00;99903.28;5048930;28;20045;-82
2022/09/07 04:01:17;;;;;;;13.20;11.90;;;;;;;16.78;100.00;99915.63;5047448;28;20047;-83
2022/09/07 04:03:43;;;;;;;12.85;11.55;;;;;;;16.78;100.00;99918.44;5049733;28;20052;-82
2022/09/07 04:06:08;;;;;;;12.07;10.98;;;;;;;16.81;100.00;99913.16;5039582;28;20055;-83
2022/09/07 04:08:35;;;;;;;13.93;12.80;;;;;;;16.70;100.00;99908.13;5050717;28;20385;-82
2022/09/07 04:11:03;;;;;;;12.43;11.32;;;;;;;16.68;100.00;99917.00;5027506;28;20120;-83
2022/09/07 04:13:30;;;;;;;14.15;12.68;;;;;;;16.64;100.00;99927.63;5042830;28;20028;-82
2022/09/07 04:15:56;;;;;;;14.93;13.50;;;;;;;16.43;100.00;99906.31;5037106;28;20045;-82
2022/09/07 04:18:22;;;;;;;16.45;14.82;;;;;;;16.40;100.00;99921.28;5031920;28;20457;-82
2022/09/07 04:20:51;;;;;;;15.75;14.25;;;;;;;16.40;100.00;99915.69;5042768;28;20112;-83
2022/09/07 04:23:17;;;;;;;16.13;14.63;;;;;;;16.45;100.00;99922.63;5050600;28;20433;-82
2022/09/07 04:25:50;;;;;;;15.95;14.50;;;;;;;16.48;100.00;99914.06;5049995;28;20441;-83
2022/09/07 04:28:16;;;;;;;17.38;15.63;;;;;;;16.43;100.00;99916.72;5048832;28;20041;-82
2022/09/07 04:30:42;;;;;;;18.08;16.42;;;;;;;16.31;100.00;99921.34;5052417;28;20494;-82
2022/09/07 04:33:08;;;;;;;17.15;15.45;;;;;;;16.26;100.00;99914.38;5048870;28;20040;-82
2022/09/07 04:35:38;;;;;;;17.17;15.68;;;;;;;16.26;100.00;99914.38;5026846;28;20502;-82
2022/09/07 04:38:04;;;;;;;17.50;16.00;;;;;;;16.33;100.00;99918.84;5042714;28;20243;-82
2022/09/07 04:40:29;;;;;;;16.42;14.93;;;;;;;16.36;100.00;99929.09;5047784;28;20684;-81
2022/09/07 04:42:55;;;;;;;16.10;14.63;;;;;;;16.42;100.00;99920.81;5047305;28;20040;-83
2022/09/07 04:45:20;;;;;;;13.60;12.40;;;;;;;16.43;100.00;99916.72;5044090;28;20041;-80
2022/09/07 04:47:47;;;;;;;14.25;12.93;;;;;;;16.49;100.00;99929.59;5041480;28;20398;-81
2022/09/07 04:50:13;;;;;;;13.15;11.90;;;;;;;16.49;100.00;99926.81;5041579;28;20056;-80
2022/09/07 04:52:39;;;;;;;12.30;11.20;;;;;;;16.45;100.00;99925.44;5045681;28;20049;-81
2022/09/07 04:55:05;;;;;;;12.32;11.18;;;;;;;16.44;100.00;99935.09;5042008;28;20045;-80
2022/09/07 04:57:30;;;;;;;13.02;11.77;;;;;;;16.46;100.00;99932.59;5044562;28;20056;-82
2022/09/07 04:59:59;;;;;;;12.90;11.65;;;;;;;16.38;100.00;99904.16;5041185;28;20421;-81
2022/09/07 05:02:24;;;;;;;11.68;10.52;;;;;;;16.51;100.00;99924.28;5042547;28;20041;-81
2022/09/07 05:04:50;;;;;;;11.63;10.73;;;;;;;16.46;100.00;99922.13;5042478;28;20405;-81
2022/09/07 05:07:15;;;;;;;12.20;11.20;;;;;;;16.56;100.00;99934.81;5025001;28;20053;-81
2022/09/07 05:09:41;;;;;;;12.02;10.80;;;;;;;16.63;100.00;99937.28;5035145;28;20049;-81
2022/09/07 05:12:06;;;;;;;13.10;11.77;;;;;;;16.71;100.00;99937.66;5048810;28;20040;-81
2022/09/07 05:14:32;;;;;;;12.15;11.15;;;;;;;16.75;100.00;99941.03;5049510;28;20037;-82
2022/09/07 05:16:58;;;;;;;15.68;14.35;;;;;;;16.78;100.00;99948.50;5049719;28;20045;-82
2022/09/07 05:19:23;;;;;;;15.52;14.02;;;;;;;16.84;100.00;99948.59;5042456;28;21088;-81
2022/09/07 05:21:49;;;;;;;13.48;12.25;;;;;;;16.87;100.00;99951.19;5043227;28;20038;-80
2022/09/07 05:24:14;;;;;;;16.48;14.75;;;;;;;17.02;100.00;99957.59;5037660;28;20033;-81
2022/09/07 05:26:40;;;;;;;15.50;14.10;;;;;;;17.11;100.00;99948.28;5046775;28;20401;-83
2022/09/07 05:29:06;;;;;;;14.80;13.27;;;;;;;17.25;100.00;99953.91;5053660;28;20189;-83
2022/09/07 05:31:32;;;;;;;16.35;13.02;;;;;;;17.44;100.00;99953.69;5054383;28;20150;-86
2022/09/07 05:33:58;;;;;;;13.35;12.00;;;;;;;17.55;100.00;99954.63;5053075;28;20333;-84
2022/09/07 05:36:25;;;;;;;12.30;11.20;;;;;;;17.73;100.00;99944.44;5054987;28;20607;-83
2022/09/07 05:38:54;;;;;;;12.98;11.68;;;;;;;17.88;100.00;99954.38;5051077;28;20119;-79
2022/09/07 05:41:23;;;;;;;16.00;14.50;;;;;;;18.00;100.00;99950.44;5022339;28;20065;-79
2022/09/07 05:43:49;;;;;;;17.30;15.57;;;;;;;18.11;100.00;99950.63;5031041;28;20379;-78
2022/09/07 05:46:15;;;;;;;17.58;16.02;;;;;;;18.23;100.00;99951.53;5038464;28;20049;-77
2022/09/07 05:48:41;;;;;;;17.35;15.77;;;;;;;18.31;100.00;99947.03;5051101;28;20438;-77
2022/09/07 05:51:07;;;;;;;15.10;13.75;;;;;;;18.45;100.00;99951.78;5031030;28;20048;-78
2022/09/07 05:53:37;;;;;;;15.60;14.07;;;;;;;18.66;100.00;99940.53;5050015;28;20037;-77
2022/09/07 05:56:03;;;;;;;16.00;14.52;;;;;;;18.82;100.00;99959.59;5050035;28;20575;-78
2022/09/07 05:58:29;;;;;;;16.50;14.90;;;;;;;18.99;100.00;99961.31;5050736;28;20048;-77
2022/09/07 06:01:07;;;;;;;16.92;15.45;;;;;;;19.12;100.00;99958.13;5050625;28;20527;-77
2022/09/07 06:03:34;;;;;;;16.02;14.38;;;;;;;19.35;100.00;99950.63;5051720;28;20060;-79
2022/09/07 06:06:01;;;;;;;15.55;11.75;;;;;;;19.58;100.00;99958.00;5052517;28;20132;-77
2022/09/07 06:08:28;;;;;;;15.80;11.15;;;;;;;19.82;100.00;99971.72;5032705;28;20041;-77
2022/09/07 06:10:53;;;;;;;11.60;9.98;;;;;;;19.91;100.00;99971.50;5043142;28;20029;-77
2022/09/07 06:13:19;;;;;;;14.57;11.45;;;;;;;19.93;100.00;99974.59;5037736;28;20478;-78
2022/09/07 06:15:44;;;;;;;15.45;13.30;;;;;;;19.90;100.00;99976.38;5050987;28;20052;-77
2022/09/07 06:18:10;;;;;;;15.40;13.57;;;;;;;20.15;100.00;99971.91;5049913;28;20163;-77
2022/09/07 06:20:35;;;;;;;13.85;12.50;;;;;;;20.46;100.00;99960.53;5016758;28;20147;-77
2022/09/07 06:23:01;;;;;;;13.13;11.93;;;;;;;20.50;100.00;99971.59;5050124;28;20261;-78
2022/09/07 06:25:26;;;;;;;15.10;12.55;;;;;;;20.68;100.00;99970.34;5051895;28;20041;-78
2022/09/07 06:27:52;;;;;;;14.77;12.25;;;;;;;20.76;100.00;99969.34;5062983;28;20578;-78
2022/09/07 06:30:19;;;;;;;14.57;13.18;;;;;;;21.07;100.00;99967.63;5033829;28;20624;-78
2022/09/07 06:32:45;;;;;;;13.63;12.23;;;;;;;21.07;100.00;99974.00;5051210;28;20029;-78
2022/09/07 06:35:11;;;;;;;12.55;11.35;;;;;;;21.19;100.00;99972.75;5050036;28;20490;-78
2022/09/07 06:37:37;;;;;;;13.70;12.20;;;;;;;21.18;100.00;99974.06;5051231;28;20086;-78
2022/09/07 06:40:02;;;;;;;13.38;12.02;;;;;;;21.29;100.00;99974.06;5051073;28;20087;-78
2022/09/07 06:42:28;;;;;;;14.63;11.98;;;;;;;21.58;100.00;99978.41;5052189;28;20433;-78
2022/09/07 06:44:56;;;;;;;13.05;11.80;;;;;;;21.31;100.00;99973.56;5034011;28;20049;-79
2022/09/07 06:47:21;;;;;;;13.25;11.93;;;;;;;21.61;100.00;99976.59;5052364;28;20044;-79
2022/09/07 06:49:47;;;;;;;13.25;11.75;;;;;;;21.84;100.00;99970.41;5051287;28;20032;-79
2022/09/07 06:52:13;;;;;;;13.40;12.10;;;;;;;21.86;100.00;99978.38;5052042;28;20490;-78
2022/09/07 06:54:38;;;;;;;13.68;10.93;;;;;;;21.92;100.00;99984.78;5050961;28;20039;-79
2022/09/07 06:57:07;;;;;;;14.02;12.50;;;;;;;21.86;100.00;99981.19;5051410;28;20418;-79
2022/09/07 06:59:33;;;;;;;12.30;11.10;;;;;;;21.95;100.00;99975.31;5050923;28;20478;-79
2022/09/07 07:01:59;;;;;;;13.02;11.73;;;;;;;22.00;100.00;99985.06;5043217;28;20045;-78
2022/09/07 07:04:24;;;;;;;13.48;12.07;;;;;;;22.04;100.00;99969.34;5050517;28;20091;-78
2022/09/07 07:06:50;;;;;;;13.10;11.90;;;;;;;22.14;100.00;99970.63;5051343;28;20063;-78
2022/09/07 07:09:15;;;;;;;13.57;11.05;;;;;;;22.31;100.00;99971.34;5032832;28;20045;-78
2022/09/07 07:11:43;;;;;;;13.68;11.60;;;;;;;22.49;100.00;99969.97;5036602;28;20045;-78
2022/09/07 07:14:13;;;;;;;12.40;11.18;;;;;;;22.51;100.00;99973.06;5031592;28;20466;-79
2022/09/07 07:16:38;;;;;;;15.57;11.55;;;;;;;22.65;100.00;99971.94;5049872;28;20056;-79
2022/09/07 07:19:04;;;;;;;11.68;10.07;;;;;;;22.95;98.69;99972.06;5051069;28;20540;-78
2022/09/07 07:21:29;;;;;;;18.35;11.18;;;;;;;22.85;98.61;99970.81;5049286;28;20487;-79
2022/09/07 07:23:55;;;;;;;13.45;10.48;;;;;;;23.00;97.82;99971.25;5033235;28;20103;-79
2022/09/07 07:26:25;;;;;;;13.10;11.05;;;;;;;22.93;97.39;99968.22;5035542;28;20405;-79
2022/09/07 07:28:53;;;;;;;15.38;10.70;;;;;;;22.89;97.98;99973.41;5053164;28;20559;-78
2022/09/07 07:31:20;;;;;;;17.50;11.52;;;;;;;23.03;96.19;99973.03;5057512;28;20067;-78
2022/09/07 07:33:47;;;;;;;14.23;11.55;;;;;;;22.92;96.32;99978.00;5050042;28;20037;-78
2022/09/07 07:36:23;;;;;;;13.73;11.30;;;;;;;22.90;96.49;99964.38;5050029;28;20041;-78
2022/09/07 07:38:51;;;;;;;13.02;10.63;;;;;;;23.02;95.89;99977.16;5049826;28;20049;-78
2022/09/07 07:41:18;;;;;;;11.75;10.18;;;;;;;23.38;93.92;99975.06;5048755;28;20032;-78
2022/09/07 07:43:44;;;;;;;13.23;11.05;;;;;;;23.61;93.56;99978.53;5031919;28;20045;-78
2022/09/07 07:46:16;;;;;;;13.80;11.68;;;;;;;23.70;92.21;99978.16;5050504;28;20398;-78
2022/09/07 07:48:42;;;;;;;12.82;11.63;;;;;;;23.47;92.30;99982.50;5049646;28;20052;-78
2022/09/07 07:51:12;;;;;;;12.38;11.10;;;;;;;23.45;94.46;99970.94;5032904;28;20045;-78
2022/09/07 07:53:38;;;;;;;13.52;11.57;;;;;;;23.79;92.21;99992.00;5032439;28;20055;-79
2022/09/07 07:56:04;;;;;;;14.35;11.75;;;;;;;23.82;92.21;99990.91;5032549;28;20026;-79
2022/09/07 07:58:32;;;;;;;11.80;10.38;;;;;;;23.89;93.24;99989.59;5049390;28;20052;-79
2022/09/07 08:01:06;;;;;;;12.38;10.80;;;;;;;24.05;91.86;99988.66;5047723;28;20040;-79
2022/09/07 08:03:36;;;;;;;13.10;11.70;;;;;;;24.23;89.24;99990.00;5038784;28;20047;-79
2022/09/07 08:06:06;;;;;;;11.48;10.18;;;;;;;24.34;89.90;99987.06;5050175;28;20041;-79
2022/09/07 08:08:32;;;;;;;15.38;11.35;;;;;;;24.26;89.30;99983.28;5032933;28;20128;-78
2022/09/07 08:11:01;;;;;;;12.63;10.93;;;;;;;24.53;88.36;99996.34;5048522;28;20037;-79
2022/09/07 08:13:29;;;;;;;13.60;12.18;;;;;;;24.39;88.55;99997.53;5032436;28;20540;-79
2022/09/07 08:15:58;;;;;;;12.50;11.30;;;;;;;24.58;88.19;99990.63;5049465;28;20053;-78
2022/09/07 08:18:24;;;;;;;12.85;11.63;;;;;;;24.73;86.35;99992.22;5050179;28;20052;-79
2022/09/07 08:20:49;;;;;;;13.07;11.88;;;;;;;24.65;87.06;99985.63;5049618;28;20064;-79
2022/09/07 08:23:15;;;;;;;13.57;12.05;;;;;;;24.62;86.17;99987.47;5047989;28;20045;-79
2022/09/07 08:25:51;;;;;;;15.23;10.70;;;;;;;24.56;86.63;99990.38;5050389;28;20044;-79
2022/09/07 08:28:17;;;;;;;13.07;10.90;;;;;;;24.81;85.57;99988.25;5031393;28;20049;-79
2022/09/07 08:30:43;;;;;;;11.60;10.40;;;;;;;24.73;84.59;99987.31;5032812;28;20033;-79
2022/09/07 08:33:08;;;;;;;11.68;10.40;;;;;;;25.00;84.28;99994.69;5007289;28;20041;-78
2022/09/07 08:35:34;;;;;;;11.88;10.82;;;;;;;25.01;84.86;99989.78;5022249;28;20079;-79
2022/09/07 08:37:59;;;;;;;10.90;10.00;;;;;;;25.33;83.90;99987.75;5047574;28;20079;-79
2022/09/07 08:40:25;;;;;;;12.05;10.65;;;;;;;25.58;80.85;99979.09;5032233;28;20578;-79
2022/09/07 08:43:27;;;;;;;10.02;8.68;;;;;;;26.02;80.04;99966.16;5049674;28;20036;-79
2022/09/07 08:45:58;;;;;;;10.70;9.70;;;;;;;26.23;75.37;99981.28;5029937;28;20529;-79
2022/09/07 08:48:30;;;;;;;10.45;9.45;;;;;;;26.30;75.41;99963.56;5016723;28;20041;-79
2022/09/07 08:50:58;;;;;;;10.55;9.55;;;;;;;26.60;72.91;99969.66;5036629;28;20037;-78
2022/09/07 08:53:24;;;;;;;10.52;8.80;;;;;;;26.58;73.67;99972.25;5052504;28;20542;-78
2022/09/07 08:55:54;;;;;;;10.85;9.20;;;;;;;26.59;72.67;99956.72;5019812;28;20518;-79
2022/09/07 08:58:42;;;;;;;10.10;9.10;;;;;;;26.55;72.31;99967.69;5028936;28;20042;-79
2022/09/07 09:01:10;;;;;;;11.27;10.07;;;;;;;26.20;73.40;99974.63;5037229;28;20103;-79
2022/09/07 09:03:36;;;;;;;9.65;8.60;;;;;;;26.17;76.42;99983.41;5033781;28;20475;-79
2022/09/07 09:06:27;;;;;;;9.95;8.95;;;;;;;26.22;76.02;99980.50;5053889;28;20083;-79
2022/09/07 09:09:20;;;;;;;9.93;9.02;;;;;;;26.42;75.95;99970.53;5034823;28;20120;-79
2022/09/07 09:11:51;;;;;;;;;;;;;;;26.14;75.89;99978.84;5039649;28;20060;-80
2022/09/07 09:14:45;;;;;;;10.85;9.75;;;;;;;26.24;77.43;99980.75;5035084;28;19924;-78
2022/09/07 09:17:19;;;;;;;11.07;10.07;;;;;;;26.05;76.77;99968.66;5020483;28;20041;-77
2022/09/07 09:19:59;;;;;;;10.27;9.38;;;;;;;26.05;77.43;99959.38;5035032;28;20617;-78
2022/09/07 09:22:27;;;;;;;10.63;9.63;;;;;;;25.68;78.24;99961.09;5052215;28;20045;-78
2022/09/07 09:25:18;;;;;;;11.75;10.75;;;;;;;25.59;79.39;99970.06;5034932;28;20055;-77
2022/09/07 09:27:44;;;;;;;11.88;10.88;;;;;;;26.02;76.92;99969.00;5055686;28;20151;-78
2022/09/07 09:30:20;;;;;;;11.50;10.40;;;;;;;26.07;77.88;99973.81;5034865;28;20102;-78
2022/09/07 09:32:48;;;;;;;11.07;10.07;;;;;;;26.16;75.80;99971.31;5052634;28;20437;-79
2022/09/07 09:35:36;;;;;;;10.93;9.93;;;;;;;26.35;76.78;99971.22;5034793;28;20084;-79
2022/09/07 09:38:04;;;;;;;10.88;9.90;;;;;;;26.60;74.99;99969.66;5052183;28;20473;-79
2022/09/07 09:40:35;;;;;;;10.75;9.50;;;;;;;26.71;74.42;99960.84;5050598;28;20135;-79
2022/09/07 09:43:20;;;;;;;11.98;10.85;;;;;;;26.78;69.75;99960.19;5042681;28;20045;-79
2022/09/07 09:45:49;;;;;;;11.38;10.48;;;;;;;26.80;70.46;99951.09;5015454;28;20119;-79
2022/09/07 09:48:20;;;;;;;10.82;9.93;;;;;;;26.80;70.00;99948.25;5040774;28;20435;-78
2022/09/07 09:50:50;;;;;;;10.23;9.43;;;;;;;26.88;71.31;99952.75;5053010;28;20059;-79
2022/09/07 09:53:22;;;;;;;11.60;10.27;;;;;;;26.77;70.92;99944.41;5050349;28;20076;-78
2022/09/07 09:55:50;;;;;;;11.25;10.13;;;;;;;26.69;71.74;99943.56;5052901;28;20406;-79
2022/09/07 09:58:34;;;;;;;10.50;9.52;;;;;;;26.89;71.24;99936.44;5032963;28;20049;-79
2022/09/07 10:01:18;;;;;;;10.90;9.77;;;;;;;27.24;70.75;99940.75;5050974;28;20402;-79
2022/09/07 10:03:44;;;;;;;10.18;9.10;;;;;;;27.41;69.01;99938.25;5017871;28;20084;-79
2022/09/07 10:06:14;;;;;;;10.55;9.50;;;;;;;27.57;66.93;99939.94;5051489;28;20048;-78
2022/09/07 10:08:59;;;;;;;10.20;9.20;;;;;;;27.46;68.60;99945.16;5034049;28;20053;-79
2022/09/07 10:11:40;;;;;;;9.80;8.90;;;;;;;27.49;66.80;99944.06;5022479;28;20084;-79
2022/09/07 10:14:35;;;;;;;9.80;8.93;;;;;;;27.89;67.60;99944.53;5032778;28;20045;-79
2022/09/07 10:17:29;;;;;;;9.93;8.90;;;;;;;28.53;66.71;99941.69;5045137;28;20605;-79
2022/09/07 10:20:16;;;;;;;9.30;8.50;;;;;;;28.94;63.68;99949.25;5050673;28;20130;-79
2022/09/07 10:22:45;;;;;;;10.05;8.90;;;;;;;29.00;64.94;99921.28;5032698;28;20045;-80
2022/09/07 10:25:35;;;;;;;9.85;8.73;;;;;;;29.45;62.61;99929.94;5017596;28;20120;-78
2022/09/07 10:28:11;;;;;;;10.18;9.15;;;;;;;28.98;61.56;99929.66;5069151;28;20056;-78
2022/09/07 10:30:48;;;;;;;9.77;8.98;;;;;;;28.63;64.61;99923.44;5063318;28;20044;-78
2022/09/07 10:33:16;;;;;;;10.57;9.48;;;;;;;28.75;63.43;99917.44;5032750;28;20044;-78
2022/09/07 10:35:53;;;;;;;11.30;9.65;;;;;;;28.99;63.12;99920.53;5050891;28;20061;-78
2022/09/07 10:38:21;;;;;;;12.80;10.10;;;;;;;29.05;64.65;99911.78;5033091;28;20041;-78
2022/09/07 10:40:52;;;;;;;10.15;9.25;;;;;;;28.84;65.18;99909.06;5052019;28;20552;-78
2022/09/07 10:43:40;;;;;;;10.57;9.55;;;;;;;28.81;64.57;99915.16;5033657;28;20083;-78
2022/09/07 10:46:27;;;;;;;11.95;9.57;;;;;;;29.20;63.94;99914.66;5014695;28;20051;-78
2022/09/07 10:49:15;;;;;;;10.10;9.10;;;;;;;29.38;62.72;99910.69;5051643;28;20041;-80
2022/09/07 10:52:02;;;;;;;13.98;9.82;;;;;;;28.86;63.08;99912.13;5051379;28;20093;-78
2022/09/07 10:54:51;;;;;;;10.48;9.35;;;;;;;29.22;63.20;99906.28;5051601;28;20296;-78
2022/09/07 10:57:24;;;;;;;11.50;10.10;;;;;;;28.85;63.58;99904.13;5035806;28;20068;-78
2022/09/07 10:59:59;;;;;;;10.43;9.52;;;;;;;28.87;65.11;99899.38;5014536;28;20053;-79
2022/09/07 11:02:48;;;;;;;10.73;9.82;;;;;;;29.04;63.69;99913.88;5047904;28;20502;-79
2022/09/07 11:05:31;;;;;;;11.45;9.75;;;;;;;28.98;64.91;99904.72;4992497;28;20045;-79
2022/09/07 11:08:15;;;;;;;10.57;9.48;;;;;;;29.34;64.13;99907.47;5042310;28;20045;-79
2022/09/07 11:10:46;;;;;;;10.23;9.07;;;;;;;29.65;61.10;99894.66;5047418;28;20050;-78
2022/09/07 11:13:15;;;;;;;10.07;9.20;;;;;;;29.68;61.52;99897.72;5044635;28;20045;-79
2022/09/07 11:16:01;;;;;;;10.30;9.30;;;;;;;29.44;62.13;99896.97;5017663;28;20163;-79
2022/09/07 11:19:02;;;;;;;10.63;9.27;;;;;;;28.83;63.25;99893.28;5033507;28;20611;-78
2022/09/07 11:21:34;;;;;;;10.48;9.50;;;;;;;28.18;66.46;99889.81;5050967;28;20432;-79
2022/09/07 11:24:22;;;;;;;11.07;9.98;;;;;;;28.58;66.49;99890.16;5033423;28;20049;-80
2022/09/07 11:26:52;;;;;;;12.00;10.77;;;;;;;29.06;65.08;99890.47;5051207;28;20049;-80
2022/09/07 11:29:47;;;;;;;10.35;9.35;;;;;;;29.63;62.72;99873.72;5032454;28;20411;-80
2022/09/07 11:32:26;;;;;;;9.90;9.05;;;;;;;29.98;61.28;99869.06;5033008;28;20387;-79